Time;durP1;ratioP1;P1;durP2;ratioP2;P2;SDS_P1;SDS_P2;PMS_P1;PMS_P2;Temp;Humidity;BMP_temperature;BMP_pressure;BME280_temperature;BME280_humidity;BME280_pressure;Samples;Min_cycle;Max_cycle;Signal;HPM_P1;HPM_P2
2022/01/19 00:00:05;;;;;;;;;;;;;;;20.12;46.92;102795.31;5033113;28;4242;-65
2022/01/19 00:02:31;;;;;;;;;;;;;;;20.04;47.08;102799.06;5029752;28;4219;-65
2022/01/19 00:04:57;;;;;;;;;;;;;;;20.02;47.33;102798.91;5032353;28;4248;-65
2022/01/19 00:07:24;;;;;;;;;;;;;;;20.01;47.25;102796.63;5035068;28;4277;-66
2022/01/19 00:09:50;;;;;;;;;;;;;;;20.11;47.01;102788.03;5030135;28;4300;-65
2022/01/19 00:12:16;;;;;;;;;;;;;;;20.07;47.15;102786.38;5034329;28;5396;-65
2022/01/19 00:14:43;;;;;;;;;;;;;;;20.04;47.23;102778.94;5030252;28;5225;-66
2022/01/19 00:17:09;;;;;;;;;;;;;;;20.02;47.22;102787.41;5034425;28;4186;-65
2022/01/19 00:19:35;;;;;;;;;;;;;;;20.15;46.87;102785.47;5034001;28;5261;-65
2022/01/19 00:22:02;;;;;;;;;;;;;;;20.10;47.10;102767.16;5029401;28;5257;-65
2022/01/19 00:24:28;;;;;;;;;;;;;;;20.02;47.22;102764.41;5030934;28;4367;-65
2022/01/19 00:26:54;;;;;;;;;;;;;;;20.17;46.96;102768.38;5030852;28;4380;-65
2022/01/19 00:29:21;;;;;;;;;;;;;;;20.09;46.99;102763.53;5034382;28;5264;-65
2022/01/19 00:31:47;;;;;;;;;;;;;;;20.07;47.10;102760.47;5032051;28;5260;-65
2022/01/19 00:34:13;;;;;;;;;;;;;;;20.18;46.82;102761.25;5033936;28;4188;-66
2022/01/19 00:36:40;;;;;;;;;;;;;;;20.05;47.03;102751.69;5030069;28;5415;-65
2022/01/19 00:39:06;;;;;;;;;;;;;;;20.12;46.76;102749.28;5035325;28;4232;-65
2022/01/19 00:41:32;;;;;;;;;;;;;;;19.99;47.12;102747.56;5032883;28;5335;-65
2022/01/19 00:43:59;;;;;;;;;;;;;;;20.03;47.15;102759.41;5026657;28;4187;-66
2022/01/19 00:46:25;;;;;;;;;;;;;;;20.08;46.99;102747.59;5032210;28;4252;-65
2022/01/19 00:48:52;;;;;;;;;;;;;;;19.98;47.24;102746.81;5032830;28;4284;-65
2022/01/19 00:51:18;;;;;;;;;;;;;;;19.95;47.39;102733.66;5034446;28;4208;-65
2022/01/19 00:53:44;;;;;;;;;;;;;;;19.95;47.36;102733.66;5032969;28;4212;-65
2022/01/19 00:56:11;;;;;;;;;;;;;;;20.04;47.21;102741.56;5023654;28;4275;-65
2022/01/19 00:58:37;;;;;;;;;;;;;;;19.96;47.29;102740.91;5031426;28;6672;-65
2022/01/19 01:01:03;;;;;;;;;;;;;;;20.04;47.24;102744.44;5015588;28;4155;-66
2022/01/19 01:03:30;;;;;;;;;;;;;;;20.03;47.16;102742.91;5022331;28;4268;-66
2022/01/19 01:05:57;;;;;;;;;;;;;;;19.99;47.18;102738.94;5032608;28;5268;-66
2022/01/19 01:08:23;;;;;;;;;;;;;;;19.98;47.27;102758.34;5031157;28;4215;-66
2022/01/19 01:10:51;;;;;;;;;;;;;;;20.04;46.96;102750.19;5031039;28;4182;-66
2022/01/19 01:13:23;;;;;;;;;;;;;;;19.97;47.34;102741.66;5033977;28;4323;-66
2022/01/19 01:18:25;;;;;;;;;;;;;;;20.08;46.96;102738.97;5023103;28;4198;-65
2022/01/19 01:20:56;;;;;;;;;;;;;;;20.08;46.90;102729.59;5012462;28;4228;-65
2022/01/19 01:23:22;;;;;;;;;;;;;;;19.98;47.23;102720.94;5017963;28;4527;-65
2022/01/19 01:25:50;;;;;;;;;;;;;;;19.96;47.31;102715.03;5030740;28;4267;-66
2022/01/19 01:28:17;;;;;;;;;;;;;;;19.99;47.33;102698.69;5030277;28;5277;-65
2022/01/19 01:30:43;;;;;;;;;;;;;;;20.09;46.99;102694.47;5005169;28;4264;-65
2022/01/19 01:33:10;;;;;;;;;;;;;;;20.10;46.94;102677.97;5015984;28;4170;-65
2022/01/19 01:35:37;;;;;;;;;;;;;;;20.01;47.23;102679.47;5030475;28;4200;-65
2022/01/19 01:38:03;;;;;;;;;;;;;;;19.97;47.28;102687.78;5033349;28;4575;-66
2022/01/19 01:40:32;;;;;;;;;;;;;;;19.95;47.16;102667.53;5020380;28;4146;-66
2022/01/19 01:42:59;;;;;;;;;;;;;;;19.92;47.45;102671.59;5017517;28;4208;-66
2022/01/19 01:45:32;;;;;;;;;;;;;;;20.20;46.71;102663.59;5031785;28;4282;-65
2022/01/19 01:48:06;;;;;;;;;;;;;;;20.07;46.98;102670.56;5032514;28;4169;-66
2022/01/19 01:53:27;;;;;;;;;;;;;;;19.97;47.31;102635.28;5020416;28;4035;-65
2022/01/19 01:55:55;;;;;;;;;;;;;;;19.99;47.32;102627.56;5019828;28;4278;-64
2022/01/19 01:58:21;;;;;;;;;;;;;;;19.98;47.25;102616.66;5048090;28;4272;-65
2022/01/19 02:01:02;;;;;;;;;;;;;;;20.09;47.14;102616.84;5016443;28;4204;-65
2022/01/19 02:03:29;;;;;;;;;;;;;;;20.02;47.22;102614.84;5021188;28;4205;-65
2022/01/19 02:08:50;;;;;;;;;;;;;;;19.99;47.05;102604.53;5029795;28;4431;-65
2022/01/19 02:22:02;;;;;;;;;;;;;;;19.94;47.56;102614.22;5013495;28;4229;-65
2022/01/19 02:24:32;;;;;;;;;;;;;;;20.02;47.19;102603.34;5021465;28;4205;-65
2022/01/19 02:40:39;;;;;;;;;;;;;;;19.99;47.25;102549.16;5013711;28;4089;-65
2022/01/19 02:43:10;;;;;;;;;;;;;;;19.99;47.28;102547.03;5032027;28;3967;-65
2022/01/19 02:51:08;;;;;;;;;;;;;;;20.02;47.20;102537.22;5048596;28;4219;-65
2022/01/19 02:53:34;;;;;;;;;;;;;;;20.03;47.15;102529.34;5033786;28;4139;-65
2022/01/19 02:56:06;;;;;;;;;;;;;;;19.92;47.38;102524.94;5035627;28;4174;-65
2022/01/19 02:58:37;;;;;;;;;;;;;;;19.87;47.55;102520.25;5036129;28;4195;-65
2022/01/19 03:09:21;;;;;;;;;;;;;;;19.98;47.21;102510.28;5033665;28;4181;-65
2022/01/19 03:11:47;;;;;;;;;;;;;;;20.02;47.08;102505.59;5031096;28;4977;-65
2022/01/19 03:14:13;;;;;;;;;;;;;;;20.01;47.17;102491.78;5020915;28;4284;-65
2022/01/19 03:16:40;;;;;;;;;;;;;;;19.99;47.21;102488.78;5014741;28;6552;-65
2022/01/19 03:19:08;;;;;;;;;;;;;;;19.94;47.40;102481.97;5031192;28;5403;-65
2022/01/19 03:21:35;;;;;;;;;;;;;;;19.90;47.45;102487.41;5034491;28;4156;-65
2022/01/19 03:24:02;;;;;;;;;;;;;;;19.90;47.53;102483.78;5017716;28;6049;-65
2022/01/19 03:26:29;;;;;;;;;;;;;;;20.07;47.07;102483.63;5033634;28;4245;-65
2022/01/19 03:29:11;;;;;;;;;;;;;;;19.92;47.25;102469.56;5023812;28;4392;-64
2022/01/19 03:31:38;;;;;;;;;;;;;;;19.94;47.23;102458.97;5016810;28;5490;-65
2022/01/19 03:34:05;;;;;;;;;;;;;;;19.84;47.65;102456.09;5022003;28;5377;-64
2022/01/19 03:36:33;;;;;;;;;;;;;;;19.90;47.46;102452.91;5018219;28;4073;-65
2022/01/19 03:39:00;;;;;;;;;;;;;;;19.97;47.36;102454.88;5024069;28;4220;-64
2022/01/19 03:41:26;;;;;;;;;;;;;;;19.91;47.43;102453.69;5020809;28;4193;-65
2022/01/19 03:43:52;;;;;;;;;;;;;;;19.93;47.26;102445.97;5035696;28;4350;-65
2022/01/19 03:46:21;;;;;;;;;;;;;;;19.98;47.22;102444.88;5020524;28;5316;-65
2022/01/19 03:48:55;;;;;;;;;;;;;;;19.92;47.31;102450.19;5029400;28;4055;-65
2022/01/19 03:51:21;;;;;;;;;;;;;;;19.95;47.37;102442.47;5016594;28;5339;-65
2022/01/19 03:53:49;;;;;;;;;;;;;;;19.96;47.28;102426.72;5019654;28;4247;-65
2022/01/19 03:56:16;;;;;;;;;;;;;;;20.02;47.27;102432.91;5033324;28;4104;-65
2022/01/19 03:58:42;;;;;;;;;;;;;;;20.04;47.20;102422.34;5030897;28;5678;-65
2022/01/19 04:01:10;;;;;;;;;;;;;;;19.97;47.29;102422.47;5032549;28;5191;-65
2022/01/19 04:04:13;;;;;;;;;;;;;;;19.95;47.27;102425.97;5022170;28;4184;-65
2022/01/19 04:07:07;;;;;;;;;;;;;;;20.18;47.00;102425.47;5021390;28;4229;-65
2022/01/19 04:09:44;;;;;;;;;;;;;;;20.01;47.25;102422.78;5031693;28;4321;-65
2022/01/19 04:12:13;;;;;;;;;;;;;;;20.00;47.33;102421.28;5015014;28;4169;-65
2022/01/19 04:14:40;;;;;;;;;;;;;;;20.01;47.23;102417.78;5029615;28;4259;-65
2022/01/19 04:17:09;;;;;;;;;;;;;;;19.94;47.38;102415.09;5033242;28;4324;-65
2022/01/19 04:22:17;;;;;;;;;;;;;;;19.86;47.65;102403.75;5022804;28;5245;-65
2022/01/19 04:24:44;;;;;;;;;;;;;;;19.98;47.24;102403.88;5014931;28;4093;-64
2022/01/19 04:30:03;;;;;;;;;;;;;;;20.06;47.14;102390.06;5015108;28;4322;-64
2022/01/19 04:32:47;;;;;;;;;;;;;;;19.99;47.26;102388.88;5016695;28;4293;-65
2022/01/19 04:35:16;;;;;;;;;;;;;;;19.97;47.15;102380.09;5016044;28;5051;-65
2022/01/19 04:44:04;;;;;;;;;;;;;;;19.90;47.39;102363.78;5046425;28;4262;-64
2022/01/19 04:46:21;;;;;;;;;;;;;;;19.95;47.30;102362.72;5031834;28;4460;-65
2022/01/19 04:54:41;;;;;;;;;;;;;;;19.92;47.33;102343.81;5018649;28;4068;-65
2022/01/19 05:03:11;;;;;;;;;;;;;;;19.97;47.22;102324.72;5031273;28;5254;-64
2022/01/19 05:06:00;;;;;;;;;;;;;;;19.99;47.26;102334.25;5023023;28;5423;-64
2022/01/19 05:13:52;;;;;;;;;;;;;;;19.91;47.49;102325.06;5014901;28;6322;-64
2022/01/19 05:16:23;;;;;;;;;;;;;;;19.96;47.44;102329.72;5014649;28;4316;-65
2022/01/19 05:18:50;;;;;;;;;;;;;;;19.98;47.23;102318.38;5029163;28;4179;-64
2022/01/19 05:21:17;;;;;;;;;;;;;;;19.89;47.51;102319.16;5016240;28;5355;-64
2022/01/19 05:24:03;;;;;;;;;;;;;;;19.99;47.20;102305.50;5019079;28;4189;-64
2022/01/19 05:26:35;;;;;;;;;;;;;;;19.90;47.47;102312.03;5029812;28;4230;-64
2022/01/19 05:29:01;;;;;;;;;;;;;;;19.87;47.62;102307.50;5018107;28;4169;-65
2022/01/19 05:31:28;;;;;;;;;;;;;;;19.93;47.55;102312.94;5017836;28;5150;-65
2022/01/19 05:33:54;;;;;;;;;;;;;;;19.92;47.60;102303.56;5013643;28;4242;-64
2022/01/19 05:36:22;;;;;;;;;;;;;;;20.06;47.10;102295.91;5012000;28;4154;-65
2022/01/19 05:39:08;;;;;;;;;;;;;;;20.05;47.37;102297.31;5025703;28;4308;-64
2022/01/19 05:41:58;;;;;;;;;;;;;;;19.61;46.65;102298.47;5009688;28;4240;-65
2022/01/19 05:44:25;;;;;;;;;;;;;;;19.77;47.84;102290.28;5024014;28;5272;-65
2022/01/19 05:46:51;;;;;;;;;;;;;;;19.87;47.55;102293.13;5023343;28;5450;-65
2022/01/19 05:49:17;;;;;;;;;;;;;;;20.06;47.53;102293.03;5029480;28;5379;-66
2022/01/19 05:51:44;;;;;;;;;;;;;;;20.22;47.30;102287.69;5044025;28;5420;-65
2022/01/19 05:54:10;;;;;;;;;;;;;;;20.04;47.75;102281.44;5017856;28;4405;-69
2022/01/19 05:56:36;;;;;;;;;;;;;;;20.03;47.67;102279.16;5020996;28;5425;-65
2022/01/19 05:59:12;;;;;;;;;;;;;;;20.05;47.65;102274.28;5023229;28;4297;-66
2022/01/19 06:01:39;;;;;;;;;;;;;;;20.02;47.62;102266.13;5032108;28;4242;-65
2022/01/19 06:04:05;;;;;;;;;;;;;;;20.02;47.52;102269.00;5049720;28;4086;-65
2022/01/19 06:06:56;;;;;;;;;;;;;;;20.04;47.73;102272.78;5033534;28;5235;-66
2022/01/19 06:12:04;;;;;;;;;;;;;;;20.00;47.84;102261.00;5017533;28;5406;-64
2022/01/19 06:14:31;;;;;;;;;;;;;;;19.99;47.69;102253.72;5022874;28;4085;-65
2022/01/19 06:16:57;;;;;;;;;;;;;;;20.01;47.58;102251.00;5047416;28;4168;-65
2022/01/19 06:19:24;;;;;;;;;;;;;;;20.22;47.23;102247.41;5023423;28;4320;-64
2022/01/19 06:21:50;;;;;;;;;;;;;;;20.11;47.41;102232.94;5022038;28;4178;-65
2022/01/19 06:24:17;;;;;;;;;;;;;;;20.03;47.71;102230.28;5039764;28;4169;-64
2022/01/19 06:26:44;;;;;;;;;;;;;;;19.87;48.08;102210.50;5022826;28;4199;-64
2022/01/19 06:29:10;;;;;;;;;;;;;;;19.97;47.95;102192.47;5020337;28;3997;-64
2022/01/19 06:31:36;;;;;;;;;;;;;;;20.00;47.84;102186.25;5020828;28;4398;-65
2022/01/19 06:34:05;;;;;;;;;;;;;;;20.06;47.72;102180.91;5023073;28;4305;-64
2022/01/19 06:36:45;;;;;;;;;;;;;;;20.02;47.70;102171.22;5034886;28;4164;-65
2022/01/19 06:39:28;;;;;;;;;;;;;;;20.12;47.60;102174.06;5019078;28;4209;-65
2022/01/19 06:42:04;;;;;;;;;;;;;;;20.02;47.72;102166.25;5030142;28;4160;-64
2022/01/19 06:44:30;;;;;;;;;;;;;;;20.07;47.54;102161.53;5024454;28;5428;-64
2022/01/19 06:46:57;;;;;;;;;;;;;;;20.08;47.80;102157.28;5021797;28;4198;-65
2022/01/19 06:49:24;;;;;;;;;;;;;;;20.00;47.83;102156.75;5026963;28;4181;-64
2022/01/19 06:51:57;;;;;;;;;;;;;;;20.05;47.73;102147.03;5016465;28;5242;-65
2022/01/19 06:54:23;;;;;;;;;;;;;;;20.07;47.78;102142.16;5052980;28;5581;-64
2022/01/19 06:56:50;;;;;;;;;;;;;;;20.08;47.69;102132.16;5036682;28;4068;-65
2022/01/19 06:59:36;;;;;;;;;;;;;;;20.13;47.56;102129.56;5036628;28;5277;-64
2022/01/19 07:02:05;;;;;;;;;;;;;;;20.01;47.92;102124.47;5037444;28;4049;-64
2022/01/19 07:04:47;;;;;;;;;;;;;;;20.00;47.90;102123.00;5026967;28;4217;-65
2022/01/19 07:07:17;;;;;;;;;;;;;;;20.13;47.75;102113.03;5021472;28;4759;-65
2022/01/19 07:09:54;;;;;;;;;;;;;;;20.11;47.61;102104.28;5037710;28;5338;-64
2022/01/19 07:12:20;;;;;;;;;;;;;;;20.07;47.88;102101.91;5040197;28;4246;-65
2022/01/19 07:14:47;;;;;;;;;;;;;;;20.02;48.07;102107.97;5037105;28;4143;-64
2022/01/19 07:17:13;;;;;;;;;;;;;;;20.13;47.80;102100.78;5020987;28;4054;-65
2022/01/19 07:19:40;;;;;;;;;;;;;;;20.03;47.94;102086.50;5053337;28;5299;-65
2022/01/19 07:22:08;;;;;;;;;;;;;;;20.09;47.89;102073.28;5053245;28;4035;-65
2022/01/19 07:24:34;;;;;;;;;;;;;;;20.03;47.89;102055.63;5039209;28;4292;-65
2022/01/19 07:27:01;;;;;;;;;;;;;;;20.04;47.96;102065.75;5027709;28;4427;-65
2022/01/19 07:29:28;;;;;;;;;;;;;;;20.15;47.82;102055.66;5053664;28;4046;-65
2022/01/19 07:31:58;;;;;;;;;;;;;;;20.04;48.06;102051.38;5027981;28;4188;-65
2022/01/19 07:34:25;;;;;;;;;;;;;;;20.03;48.16;102052.75;5028557;28;5308;-65
2022/01/19 07:36:53;;;;;;;;;;;;;;;20.05;48.01;102055.00;5021242;28;4159;-65
2022/01/19 07:39:19;;;;;;;;;;;;;;;20.09;47.94;102044.53;5027510;28;4133;-65
2022/01/19 07:41:46;;;;;;;;;;;;;;;20.08;47.96;102059.50;5026008;28;4049;-65
2022/01/19 07:44:32;;;;;;;;;;;;;;;20.05;48.10;102044.25;5038828;28;4229;-65
2022/01/19 07:47:17;;;;;;;;;;;;;;;20.08;47.91;102045.88;5036481;28;4098;-65
2022/01/19 07:50:08;;;;;;;;;;;;;;;20.02;48.00;102039.75;5026830;28;4231;-64
2022/01/19 07:52:40;;;;;;;;;;;;;;;20.01;48.21;102038.22;5053568;28;5251;-65
2022/01/19 07:55:15;;;;;;;;;;;;;;;20.03;48.10;102031.88;5038110;28;4149;-65
2022/01/19 07:57:57;;;;;;;;;;;;;;;20.05;47.91;102029.88;5037977;28;4185;-65
2022/01/19 08:00:30;;;;;;;;;;;;;;;19.98;48.09;102032.97;5030462;28;4272;-64
2022/01/19 08:03:15;;;;;;;;;;;;;;;19.99;47.96;102029.47;5020990;28;4272;-63
2022/01/19 08:05:56;;;;;;;;;;;;;;;20.07;47.79;102027.13;5051426;28;4201;-63
2022/01/19 08:08:22;;;;;;;;;;;;;;;19.93;47.95;102020.44;5036018;28;4057;-62
2022/01/19 08:10:49;;;;;;;;;;;;;;;19.99;47.76;102023.72;5036122;28;6428;-63
2022/01/19 08:13:16;;;;;;;;;;;;;;;20.05;47.85;102014.75;5016890;28;4269;-65
2022/01/19 08:15:42;;;;;;;;;;;;;;;20.01;47.82;102002.97;5047537;28;4204;-64
2022/01/19 08:18:10;;;;;;;;;;;;;;;20.02;47.83;102008.13;5016017;28;4226;-65
2022/01/19 08:20:40;;;;;;;;;;;;;;;20.11;47.51;102006.50;5034549;28;4291;-64
2022/01/19 08:23:07;;;;;;;;;;;;;;;20.22;47.41;102007.94;5027385;28;4371;-65
2022/01/19 08:25:47;;;;;;;;;;;;;;;19.99;47.90;101997.81;5027432;28;5395;-65
2022/01/19 08:28:13;;;;;;;;;;;;;;;20.06;47.59;101988.22;5051163;28;4076;-65
2022/01/19 08:30:40;;;;;;;;;;;;;;;20.04;47.80;101985.25;5035913;28;4197;-65
2022/01/19 08:33:06;;;;;;;;;;;;;;;20.14;47.44;101981.53;5020272;28;5455;-65
2022/01/19 08:35:45;;;;;;;;;;;;;;;20.17;47.41;101986.03;5026419;28;4177;-65
2022/01/19 08:38:32;;;;;;;;;;;;;;;20.26;47.30;101980.19;5037500;28;4232;-65
2022/01/19 08:41:18;;;;;;;;;;;;;;;20.19;47.34;101966.78;5035162;28;4177;-65
2022/01/19 08:43:46;;;;;;;;;;;;;;;20.19;47.26;101966.03;5024316;28;4201;-65
2022/01/19 08:46:12;;;;;;;;;;;;;;;20.21;47.25;101958.28;5026346;28;4081;-65
2022/01/19 08:48:58;;;;;;;;;;;;;;;20.12;47.49;101949.75;5035102;28;4122;-65
2022/01/19 08:51:41;;;;;;;;;;;;;;;20.11;47.53;101954.75;5026297;28;4176;-65
2022/01/19 08:54:16;;;;;;;;;;;;;;;20.11;47.66;101963.38;5019397;28;4668;-65
2022/01/19 08:56:56;;;;;;;;;;;;;;;20.08;47.57;101956.72;5024556;28;4218;-64
2022/01/19 08:59:23;;;;;;;;;;;;;;;20.01;47.99;101957.72;5033369;28;4256;-65
2022/01/19 09:01:49;;;;;;;;;;;;;;;19.88;48.30;101964.03;5032249;28;4158;-64
2022/01/19 09:04:15;;;;;;;;;;;;;;;19.83;48.16;101959.38;5034484;28;4233;-65
2022/01/19 09:06:43;;;;;;;;;;;;;;;19.97;47.71;101950.94;5035921;28;4180;-65
2022/01/19 09:09:09;;;;;;;;;;;;;;;19.97;47.25;101943.06;5034321;28;4240;-64
2022/01/19 09:11:36;;;;;;;;;;;;;;;19.99;47.07;101946.06;5035286;28;5571;-65
2022/01/19 09:14:03;;;;;;;;;;;;;;;20.01;46.95;101939.72;5024170;28;4244;-65
2022/01/19 09:16:30;;;;;;;;;;;;;;;20.03;46.99;101936.97;5013891;28;4244;-65
2022/01/19 09:18:59;;;;;;;;;;;;;;;20.00;47.14;101933.22;5014996;28;5244;-65
2022/01/19 09:21:25;;;;;;;;;;;;;;;20.06;46.94;101936.47;5016386;28;4188;-65
2022/01/19 09:23:52;;;;;;;;;;;;;;;20.29;46.60;101941.56;5013248;28;4180;-64
2022/01/19 09:26:18;;;;;;;;;;;;;;;20.13;46.87;101942.63;5015533;28;4184;-65
2022/01/19 09:28:45;;;;;;;;;;;;;;;20.12;46.90;101944.00;5015009;28;5518;-64
2022/01/19 09:31:32;;;;;;;;;;;;;;;20.03;46.96;101939.84;5017161;28;4180;-65
2022/01/19 09:34:09;;;;;;;;;;;;;;;20.09;47.05;101929.50;5015909;28;4169;-63
2022/01/19 09:36:44;;;;;;;;;;;;;;;20.26;46.57;101919.78;5017116;28;5369;-64
2022/01/19 09:39:10;;;;;;;;;;;;;;;20.12;46.97;101916.00;5016834;28;4273;-64
2022/01/19 09:41:36;;;;;;;;;;;;;;;20.09;47.12;101905.75;5015764;28;4222;-63
2022/01/19 09:44:03;;;;;;;;;;;;;;;20.11;47.10;101902.22;5015873;28;4044;-63
2022/01/19 09:46:29;;;;;;;;;;;;;;;20.16;46.88;101912.63;5016853;28;4227;-64
2022/01/19 09:48:59;;;;;;;;;;;;;;;20.08;47.05;101909.97;5015344;28;4250;-64
2022/01/19 09:51:26;;;;;;;;;;;;;;;20.05;47.19;101911.97;5017678;28;4488;-63
2022/01/19 09:53:52;;;;;;;;;;;;;;;20.05;47.27;101906.22;5015971;28;5230;-63
2022/01/19 09:56:20;;;;;;;;;;;;;;;20.15;46.94;101908.25;5014231;28;4125;-64
2022/01/19 09:58:47;;;;;;;;;;;;;;;20.13;47.08;101900.22;5014361;28;4196;-64
2022/01/19 10:01:19;;;;;;;;;;;;;;;20.19;46.79;101906.38;5016368;28;4294;-64
2022/01/19 10:03:46;;;;;;;;;;;;;;;20.20;47.06;101893.53;5033102;28;6415;-67
2022/01/19 10:06:16;;;;;;;;;;;;;;;18.78;42.90;101902.78;5034464;28;4141;-71
2022/01/19 10:08:46;;;;;;;;;;;;;;;19.07;46.46;101899.75;5034393;28;4174;-66
2022/01/19 10:11:22;;;;;;;;;;;;;;;19.15;42.56;101906.06;5035832;28;5385;-70
2022/01/19 10:16:59;;;;;;;;;;;;;;;19.34;45.09;101892.94;5032762;28;4204;-71
2022/01/19 10:19:33;;;;;;;;;;;;;;;19.52;45.07;101876.91;5035114;28;4157;-71
2022/01/19 10:22:05;;;;;;;;;;;;;;;19.67;44.56;101861.34;5035423;28;5313;-70
2022/01/19 10:24:32;;;;;;;;;;;;;;;19.62;45.07;101857.44;5034288;28;6435;-71
2022/01/19 10:27:18;;;;;;;;;;;;;;;19.80;44.67;101854.28;5035176;28;5269;-72
2022/01/19 10:29:44;;;;;;;;;;;;;;;20.10;44.29;101843.97;5034864;28;4001;-69
2022/01/19 10:32:11;;;;;;;;;;;;;;;20.03;44.78;101839.97;5035089;28;4079;-70
2022/01/19 10:34:37;;;;;;;;;;;;;;;19.61;45.19;101835.84;5035305;28;4388;-70
2022/01/19 10:37:05;;;;;;;;;;;;;;;19.61;45.06;101847.34;5028910;28;4585;-72
2022/01/19 10:39:41;;;;;;;;;;;;;;;18.72;42.30;101848.56;5028881;28;3959;-69
2022/01/19 10:42:08;;;;;;;;;;;;;;;18.83;43.08;101847.94;5030142;28;4032;-70
2022/01/19 10:44:36;;;;;;;;;;;;;;;19.30;42.89;101849.56;5034868;28;4189;-66
2022/01/19 10:47:37;;;;;;;;;;;;;;;19.82;43.04;101851.56;5034927;28;4176;-72
2022/01/19 10:50:04;;;;;;;;;;;;;;;18.53;40.88;101840.06;5035882;28;4064;-69
2022/01/19 10:52:31;;;;;;;;;;;;;;;15.93;44.68;101837.91;5036437;28;4046;-65
2022/01/19 10:54:58;;;;;;;;;;;;;;;15.88;46.44;101829.00;5036345;28;4440;-67
2022/01/19 10:57:25;;;;;;;;;;;;;;;15.93;46.48;101812.19;5031953;28;4057;-67
2022/01/19 11:00:17;;;;;;;;;;;;;;;15.40;53.77;101817.97;5034991;28;5400;-66
2022/01/19 11:02:43;;;;;;;;;;;;;;;15.80;49.83;101788.38;5033530;28;4180;-66
2022/01/19 11:05:10;;;;;;;;;;;;;;;17.83;45.43;101780.72;5032446;28;4072;-66
2022/01/19 11:07:36;;;;;;;;;;;;;;;18.75;43.82;101772.72;5033565;28;4110;-68
2022/01/19 11:10:12;;;;;;;;;;;;;;;18.84;43.08;101771.19;5037953;28;4515;-68
2022/01/19 11:12:44;;;;;;;;;;;;;;;18.84;43.35;101766.19;5034275;28;4212;-66
2022/01/19 11:15:12;;;;;;;;;;;;;;;18.90;43.12;101742.91;5038790;28;4202;-67
2022/01/19 11:17:38;;;;;;;;;;;;;;;18.98;42.94;101731.94;5034687;28;5108;-69
2022/01/19 11:20:06;;;;;;;;;;;;;;;18.91;43.39;101737.91;5038552;28;4223;-67
2022/01/19 11:22:39;;;;;;;;;;;;;;;18.98;42.85;101740.56;5034293;28;4160;-64
2022/01/19 11:25:09;;;;;;;;;;;;;;;19.01;43.37;101729.97;5019301;28;4454;-67
2022/01/19 11:27:54;;;;;;;;;;;;;;;18.74;43.10;101724.59;5021652;28;4501;-69
2022/01/19 11:30:24;;;;;;;;;;;;;;;18.51;43.22;101719.44;5037884;28;4092;-67
2022/01/19 11:33:09;;;;;;;;;;;;;;;18.94;42.32;101711.59;5037730;28;5489;-65
2022/01/19 11:35:36;;;;;;;;;;;;;;;18.95;43.13;101709.47;5036085;28;4901;-64
2022/01/19 11:38:22;;;;;;;;;;;;;;;19.33;42.69;101690.38;5037730;28;4330;-64
2022/01/19 11:40:48;;;;;;;;;;;;;;;19.27;42.43;101710.09;5037220;28;6315;-67
2022/01/19 11:43:19;;;;;;;;;;;;;;;19.34;42.55;101717.72;5039133;28;4305;-65
2022/01/19 11:45:45;;;;;;;;;;;;;;;19.51;42.33;101705.88;5033323;28;5615;-66
2022/01/19 11:48:15;;;;;;;;;;;;;;;19.49;42.54;101700.00;5036764;28;4267;-68
2022/01/19 11:50:41;;;;;;;;;;;;;;;19.46;42.72;101681.16;5038744;28;5411;-66
2022/01/19 11:53:10;;;;;;;;;;;;;;;19.60;42.58;101676.28;5038197;28;4095;-65
2022/01/19 11:55:37;;;;;;;;;;;;;;;19.65;42.84;101668.69;5033785;28;4246;-65
2022/01/19 11:58:10;;;;;;;;;;;;;;;19.60;42.90;101661.94;5036651;28;4823;-65
2022/01/19 12:00:36;;;;;;;;;;;;;;;19.55;43.05;101657.31;5036186;28;4204;-66
2022/01/19 12:03:24;;;;;;;;;;;;;;;19.59;43.06;101646.06;5036472;28;4196;-65
2022/01/19 12:06:11;;;;;;;;;;;;;;;19.61;43.10;101628.97;5033611;28;4143;-65
2022/01/19 12:08:39;;;;;;;;;;;;;;;19.60;43.16;101609.47;5024976;28;5203;-65
2022/01/19 12:11:16;;;;;;;;;;;;;;;19.63;43.06;101613.97;5031622;28;5355;-65
2022/01/19 12:19:13;;;;;;;;;;;;;;;19.64;43.54;101581.72;5035080;28;4126;-65
2022/01/19 12:21:39;;;;;;;;;;;;;;;19.65;43.50;101588.22;5036104;28;4405;-66
2022/01/19 12:24:32;;;;;;;;;;;;;;;19.65;43.53;101579.59;5034992;28;4241;-65
2022/01/19 12:26:59;;;;;;;;;;;;;;;19.76;43.48;101566.63;5036812;28;4253;-65
2022/01/19 12:29:38;;;;;;;;;;;;;;;19.73;43.61;101570.78;5033665;28;4181;-66
2022/01/19 12:32:05;;;;;;;;;;;;;;;19.70;43.65;101561.28;5034144;28;4027;-65
2022/01/19 12:34:42;;;;;;;;;;;;;;;19.63;43.83;101547.88;5035027;28;4073;-69
2022/01/19 12:37:08;;;;;;;;;;;;;;;19.61;44.10;101522.66;5033087;28;4219;-69
2022/01/19 12:39:35;;;;;;;;;;;;;;;19.62;44.05;101514.78;5034160;28;4217;-68
2022/01/19 12:42:03;;;;;;;;;;;;;;;19.64;44.04;101509.91;5033420;28;5520;-69
2022/01/19 12:44:35;;;;;;;;;;;;;;;19.60;44.08;101498.16;5033863;28;4224;-70
2022/01/19 12:47:03;;;;;;;;;;;;;;;19.60;44.17;101495.28;5033884;28;4158;-69
2022/01/19 12:49:30;;;;;;;;;;;;;;;19.60;44.15;101509.66;5036025;28;4273;-69
2022/01/19 12:51:56;;;;;;;;;;;;;;;19.61;44.30;101499.69;5034828;28;4150;-69
2022/01/19 12:54:26;;;;;;;;;;;;;;;19.71;44.22;101495.94;5033161;28;4212;-69
2022/01/19 12:57:01;;;;;;;;;;;;;;;19.75;44.29;101493.31;5033449;28;4172;-77
2022/01/19 12:59:28;;;;;;;;;;;;;;;19.66;44.37;101487.03;5034319;28;4300;-71
2022/01/19 13:01:55;;;;;;;;;;;;;;;19.63;44.54;101491.19;5032982;28;4311;-73
2022/01/19 13:04:25;;;;;;;;;;;;;;;19.66;44.84;101495.66;5037882;28;4007;-71
2022/01/19 13:06:54;;;;;;;;;;;;;;;19.70;44.70;101488.69;5037007;28;4130;-72
2022/01/19 13:09:29;;;;;;;;;;;;;;;19.58;45.08;101480.81;5032860;28;4106;-73
2022/01/19 13:11:56;;;;;;;;;;;;;;;19.46;45.54;101480.81;5034982;28;5324;-70
2022/01/19 13:14:24;;;;;;;;;;;;;;;19.55;45.38;101472.72;5033382;28;4203;-70
2022/01/19 13:16:52;;;;;;;;;;;;;;;19.63;45.36;101465.31;5033035;28;4196;-72
2022/01/19 13:19:19;;;;;;;;;;;;;;;19.55;45.54;101470.56;5033442;28;5685;-71
2022/01/19 13:21:47;;;;;;;;;;;;;;;19.44;45.90;101466.34;5031178;28;4529;-69
2022/01/19 13:24:17;;;;;;;;;;;;;;;19.44;45.98;101454.13;5032580;28;4178;-69
2022/01/19 13:26:45;;;;;;;;;;;;;;;19.41;45.93;101449.63;5035029;28;4240;-70
2022/01/19 13:29:25;;;;;;;;;;;;;;;19.51;45.74;101435.84;5034825;28;4242;-70
2022/01/19 13:32:02;;;;;;;;;;;;;;;19.41;46.08;101424.53;5032715;28;5416;-69
2022/01/19 13:34:30;;;;;;;;;;;;;;;19.59;45.81;101430.59;5036834;28;4206;-73
2022/01/19 13:36:59;;;;;;;;;;;;;;;19.55;45.84;101418.88;5033213;28;4159;-68
2022/01/19 13:39:26;;;;;;;;;;;;;;;19.43;46.17;101412.41;5032048;28;5164;-68
2022/01/19 13:41:54;;;;;;;;;;;;;;;19.54;45.79;101405.91;5035069;28;4220;-70
2022/01/19 13:44:21;;;;;;;;;;;;;;;19.63;45.65;101402.13;5031780;28;4561;-70
2022/01/19 13:46:47;;;;;;;;;;;;;;;19.60;46.13;101391.13;5032006;28;5231;-69
2022/01/19 13:49:13;;;;;;;;;;;;;;;19.65;46.17;101393.63;5034625;28;4594;-71
2022/01/19 13:51:43;;;;;;;;;;;;;;;19.61;46.14;101390.50;5033883;28;4602;-70
2022/01/19 13:54:09;;;;;;;;;;;;;;;19.52;46.34;101384.91;5036339;28;4535;-71
2022/01/19 13:56:37;;;;;;;;;;;;;;;19.44;46.51;101367.94;5014496;28;5215;-70
2022/01/19 13:59:07;;;;;;;;;;;;;;;19.39;46.66;101369.09;5032228;28;4199;-71
2022/01/19 14:01:37;;;;;;;;;;;;;;;19.53;46.37;101374.91;5031866;28;4819;-69
2022/01/19 14:04:10;;;;;;;;;;;;;;;19.46;46.43;101370.94;5030118;28;4304;-70
2022/01/19 14:06:40;;;;;;;;;;;;;;;19.45;46.60;101372.31;5030901;28;4408;-70
2022/01/19 14:09:07;;;;;;;;;;;;;;;19.41;46.51;101366.34;5030388;28;4186;-70
2022/01/19 14:11:34;;;;;;;;;;;;;;;19.44;46.59;101360.06;5030371;28;4606;-70
2022/01/19 14:14:01;;;;;;;;;;;;;;;19.41;46.47;101360.59;5030301;28;5022;-71
2022/01/19 14:16:28;;;;;;;;;;;;;;;19.38;46.47;101359.75;5029368;28;5687;-70
2022/01/19 14:19:05;;;;;;;;;;;;;;;19.43;46.43;101361.47;5031372;28;5577;-71
2022/01/19 14:21:31;;;;;;;;;;;;;;;19.38;46.42;101347.50;5025379;28;4247;-70
2022/01/19 14:23:58;;;;;;;;;;;;;;;19.39;46.49;101349.72;5030370;28;5328;-71
2022/01/19 14:26:24;;;;;;;;;;;;;;;19.43;46.34;101343.50;5031215;28;5266;-70
2022/01/19 14:29:09;;;;;;;;;;;;;;;19.47;46.19;101337.97;5030939;28;4153;-70